createdAt,value
2023-05-17T00:02:29.338Z,2.65
2023-05-17T00:05:32.401Z,1.65
2023-05-17T00:08:35.455Z,2.28
2023-05-17T00:11:39.966Z,1.70
2023-05-17T00:14:43.389Z,2.03
2023-05-17T00:17:46.601Z,1.83
2023-05-17T00:20:50.031Z,2.00
2023-05-17T00:23:53.045Z,2.23
2023-05-17T00:26:57.474Z,2.80
2023-05-17T00:30:01.008Z,2.08
2023-05-17T00:33:04.202Z,1.55
2023-05-17T00:36:07.694Z,1.70
2023-05-17T00:39:10.874Z,2.27
2023-05-17T00:42:15.659Z,2.38
2023-05-17T00:45:18.979Z,1.80
2023-05-17T00:48:22.375Z,1.80
2023-05-17T00:51:25.781Z,1.57
2023-05-17T00:54:29.825Z,2.10
2023-05-17T00:57:34.362Z,2.00
2023-05-17T01:00:37.865Z,2.80
2023-05-17T01:03:41.414Z,2.00
2023-05-17T01:06:44.580Z,1.75
2023-05-17T01:09:48.136Z,2.35
2023-05-17T01:13:05.890Z,1.63
2023-05-17T01:16:17.660Z,2.35
2023-05-17T01:19:46.395Z,1.85
2023-05-17T01:22:54.815Z,2.70
2023-05-17T01:26:05.800Z,2.53
2023-05-17T01:29:11.059Z,2.90
2023-05-17T01:32:14.704Z,2.70
2023-05-17T01:35:17.925Z,2.53
2023-05-17T01:38:20.960Z,2.50
2023-05-17T01:41:28.605Z,2.28
2023-05-17T01:44:39.494Z,2.38
2023-05-17T01:47:51.317Z,3.00
2023-05-17T01:50:57.954Z,3.03
2023-05-17T01:54:09.412Z,2.75
2023-05-17T01:57:13.142Z,2.33
2023-05-17T02:00:18.889Z,2.10
2023-05-17T02:03:22.861Z,2.95
2023-05-17T02:06:26.079Z,2.05
2023-05-17T02:09:29.152Z,3.00
2023-05-17T02:12:32.168Z,2.45
2023-05-17T02:15:36.712Z,2.60
2023-05-17T02:18:40.477Z,2.10
2023-05-17T02:21:44.079Z,2.28
2023-05-17T02:24:48.815Z,1.67
2023-05-17T02:27:51.856Z,2.15
2023-05-17T02:30:56.916Z,2.38
2023-05-17T02:34:00.412Z,2.45
2023-05-17T02:37:03.697Z,1.65
2023-05-17T02:40:09.653Z,1.80
2023-05-17T02:43:12.798Z,2.28
2023-05-17T02:46:17.681Z,1.83
2023-05-17T02:49:20.732Z,2.00
2023-05-17T02:52:23.749Z,1.75
2023-05-17T02:55:27.469Z,1.80
2023-05-17T02:58:30.942Z,2.15
2023-05-17T03:01:35.304Z,1.97
2023-05-17T03:05:00.410Z,1.63
2023-05-17T03:08:03.726Z,2.15
2023-05-17T03:11:07.250Z,1.43
2023-05-17T03:14:10.599Z,1.45
2023-05-17T03:17:13.651Z,2.20
2023-05-17T03:20:18.251Z,2.03
2023-05-17T03:23:21.689Z,1.98
2023-05-17T03:26:25.108Z,2.67
2023-05-17T03:29:28.889Z,1.08
2023-05-17T03:32:32.161Z,1.63
2023-05-17T03:35:36.665Z,2.20
2023-05-17T03:38:39.961Z,1.50
2023-05-17T03:41:43.228Z,1.60
2023-05-17T03:44:46.321Z,1.13
2023-05-17T03:47:49.415Z,1.20
2023-05-17T03:50:53.956Z,1.27
2023-05-17T03:53:59.447Z,1.42
2023-05-17T03:57:03.639Z,1.80
2023-05-17T04:00:10.633Z,2.40
2023-05-17T04:03:13.792Z,1.42
2023-05-17T04:06:18.126Z,1.23
2023-05-17T04:09:21.185Z,1.30
2023-05-17T04:12:24.287Z,1.23
2023-05-17T04:15:27.573Z,1.42
2023-05-17T04:18:30.805Z,1.80
2023-05-17T04:21:35.244Z,1.73
2023-05-17T04:24:38.480Z,1.40
2023-05-17T04:27:42.222Z,1.83
2023-05-17T04:30:46.032Z,1.80
2023-05-17T04:33:49.250Z,1.38
2023-05-17T04:36:53.896Z,2.43
2023-05-17T04:39:59.030Z,1.40
2023-05-17T04:43:02.963Z,1.20
2023-05-17T04:46:06.968Z,1.30
2023-05-17T04:49:10.085Z,1.40
2023-05-17T04:52:14.508Z,0.88
2023-05-17T04:55:17.607Z,1.38
2023-05-17T04:58:20.673Z,1.00
2023-05-17T05:05:09.449Z,1.33
2023-05-17T05:08:12.639Z,1.88
2023-05-17T05:11:15.779Z,1.30
2023-05-17T05:14:18.845Z,1.25
2023-05-17T05:17:22.144Z,1.70
2023-05-17T05:20:27.963Z,1.37
2023-05-17T05:23:31.735Z,1.08
2023-05-17T05:26:34.822Z,1.40
2023-05-17T05:29:37.929Z,1.75
2023-05-17T05:32:41.964Z,2.17
2023-05-17T05:35:47.386Z,1.65
2023-05-17T05:38:53.788Z,1.73
2023-05-17T05:41:56.937Z,1.40
2023-05-17T05:45:00.912Z,1.50
2023-05-17T05:48:05.709Z,1.30
2023-05-17T05:51:10.894Z,1.35
2023-05-17T05:54:14.595Z,1.10
2023-05-17T05:57:17.802Z,1.30
2023-05-17T06:00:22.230Z,1.27
2023-05-17T06:03:25.452Z,1.40
2023-05-17T06:06:30.024Z,1.63
2023-05-17T06:09:53.377Z,2.15
2023-05-17T06:12:56.389Z,1.40
2023-05-17T06:15:59.947Z,1.98
2023-05-17T06:19:03.207Z,2.20
2023-05-17T06:22:06.593Z,1.87
2023-05-17T06:25:12.613Z,1.27
2023-05-17T06:28:16.043Z,1.52
2023-05-17T06:31:20.999Z,1.20
2023-05-17T06:34:24.691Z,1.40
2023-05-17T06:37:27.812Z,1.20
2023-05-17T06:40:32.751Z,1.27
2023-05-17T06:43:37.781Z,1.42
2023-05-17T06:46:41.208Z,1.38
2023-05-17T06:49:44.278Z,1.33
2023-05-17T06:53:05.905Z,1.23
2023-05-17T06:56:09.125Z,1.08
2023-05-17T06:59:12.526Z,1.10
2023-05-17T07:02:16.929Z,1.07
2023-05-17T07:05:20.502Z,0.88
2023-05-17T07:08:25.044Z,1.17
2023-05-17T07:11:28.401Z,1.30
2023-05-17T07:14:31.471Z,1.10
2023-05-17T07:17:34.767Z,1.58
2023-05-17T07:20:38.203Z,1.43
2023-05-17T07:23:43.577Z,1.20
2023-05-17T07:26:46.854Z,1.20
2023-05-17T07:29:50.076Z,1.23
2023-05-17T07:32:53.459Z,1.00
2023-05-17T07:35:56.699Z,1.23
2023-05-17T07:39:01.196Z,0.88
2023-05-17T07:42:05.658Z,0.55
2023-05-17T07:45:10.225Z,0.90
2023-05-17T07:48:13.527Z,0.70
2023-05-17T07:51:17.208Z,1.42
2023-05-17T07:54:25.549Z,0.93
2023-05-17T07:57:28.625Z,1.20
2023-05-17T08:00:31.700Z,1.13
2023-05-17T08:03:34.775Z,1.40
2023-05-17T08:06:38.012Z,1.25
2023-05-17T08:09:45.553Z,1.03
2023-05-17T08:12:48.667Z,0.95
2023-05-17T08:15:58.454Z,0.85
2023-05-17T08:19:04.949Z,0.82
2023-05-17T08:22:08.152Z,0.70
2023-05-17T08:25:12.644Z,1.00
2023-05-17T08:28:15.701Z,0.82
2023-05-17T08:31:18.848Z,1.08
2023-05-17T08:34:22.429Z,1.42
2023-05-17T08:37:25.680Z,1.17
2023-05-17T08:40:30.398Z,0.63
2023-05-17T08:43:33.738Z,1.15
2023-05-17T08:46:38.500Z,0.60
2023-05-17T08:49:42.369Z,1.00
2023-05-17T08:52:47.306Z,1.25
2023-05-17T08:55:52.366Z,1.23
2023-05-17T08:58:58.107Z,1.40
2023-05-17T09:02:02.433Z,1.00
2023-05-17T09:05:06.778Z,1.08
2023-05-17T09:08:14.093Z,1.35
2023-05-17T09:11:25.908Z,1.02
2023-05-17T09:14:34.160Z,0.98
2023-05-17T09:17:37.282Z,0.80
2023-05-17T09:20:41.300Z,0.75
2023-05-17T09:23:49.055Z,0.73
2023-05-17T09:27:05.983Z,1.15
2023-05-17T09:30:12.209Z,0.80
2023-05-17T09:33:17.769Z,0.65
2023-05-17T09:36:23.905Z,0.85
2023-05-17T09:39:28.277Z,1.00
2023-05-17T09:42:36.965Z,1.50
2023-05-17T09:45:41.181Z,0.77
2023-05-17T09:51:51.636Z,0.50
2023-05-17T09:54:55.743Z,0.93
2023-05-17T10:01:09.152Z,0.45
2023-05-17T10:04:13.845Z,0.55
2023-05-17T10:07:19.669Z,0.63
2023-05-17T10:10:23.373Z,0.63
2023-05-17T10:13:34.680Z,0.40
2023-05-17T10:16:52.405Z,0.30
2023-05-17T10:19:56.169Z,0.95
2023-05-17T10:23:00.889Z,0.38
2023-05-17T10:26:04.653Z,0.50
2023-05-17T10:29:08.798Z,0.52
2023-05-17T10:32:17.158Z,0.70
2023-05-17T10:35:22.666Z,0.50
2023-05-17T10:38:38.794Z,0.55
2023-05-17T10:41:48.744Z,0.40
2023-05-17T10:44:54.478Z,0.55
2023-05-17T10:48:30.932Z,0.57
2023-05-17T10:51:35.476Z,0.70
2023-05-17T10:54:42.322Z,0.63
2023-05-17T10:57:51.154Z,0.55
2023-05-17T11:00:55.793Z,0.80
2023-05-17T11:04:26.457Z,0.50
2023-05-17T11:07:49.905Z,0.50
2023-05-17T11:11:14.170Z,0.52
2023-05-17T11:14:17.202Z,0.20
2023-05-17T11:17:22.375Z,0.35
2023-05-17T11:20:39.171Z,0.80
2023-05-17T11:23:44.463Z,0.90
2023-05-17T11:26:47.580Z,0.80
2023-05-17T11:29:50.675Z,0.52
2023-05-17T11:32:55.191Z,0.55
2023-05-17T11:36:24.019Z,0.60
2023-05-17T11:39:28.164Z,0.50
2023-05-17T11:45:43.149Z,0.63
2023-05-17T11:48:48.297Z,0.60
2023-05-17T11:51:52.800Z,0.32
2023-05-17T11:54:56.547Z,0.70
2023-05-17T11:58:00.799Z,0.80
2023-05-17T12:04:07.500Z,0.40
2023-05-17T12:07:12.455Z,0.45
2023-05-17T12:10:15.820Z,0.60
2023-05-17T12:13:19.230Z,0.50
2023-05-17T12:16:23.025Z,0.60
2023-05-17T12:19:30.211Z,0.57
2023-05-17T12:22:34.915Z,0.63
2023-05-17T12:25:37.939Z,0.43
2023-05-17T12:28:42.394Z,0.77
2023-05-17T12:31:49.203Z,0.40
2023-05-17T12:34:52.306Z,0.40
2023-05-17T12:37:56.687Z,0.68
2023-05-17T12:41:02.038Z,0.47
2023-05-17T12:44:14.571Z,0.40
2023-05-17T12:47:19.137Z,0.35
2023-05-17T12:50:27.087Z,0.32
2023-05-17T12:53:38.095Z,0.82
2023-05-17T12:56:43.397Z,0.40
2023-05-17T12:59:48.758Z,1.00
2023-05-17T13:02:51.862Z,0.40
2023-05-17T13:06:03.041Z,0.50
2023-05-17T13:09:07.560Z,0.43
2023-05-17T13:12:10.558Z,0.60
2023-05-17T13:15:15.655Z,0.32
2023-05-17T13:18:21.203Z,0.30
2023-05-17T13:21:25.502Z,0.50
2023-05-17T13:27:34.717Z,0.60
2023-05-17T13:30:38.757Z,0.63
2023-05-17T13:33:43.079Z,0.90
2023-05-17T13:36:46.281Z,0.60
2023-05-17T13:39:50.914Z,0.45
2023-05-17T13:42:53.870Z,0.43
2023-05-17T13:45:58.885Z,0.88
2023-05-17T13:49:02.616Z,0.80
2023-05-17T13:52:08.863Z,0.43
2023-05-17T13:55:13.359Z,0.70
2023-05-17T13:58:17.780Z,0.35
2023-05-17T14:01:21.181Z,1.08
2023-05-17T14:04:24.208Z,0.80
2023-05-17T14:07:27.216Z,0.45
2023-05-17T14:10:31.785Z,0.85
2023-05-17T14:13:34.758Z,0.70
2023-05-17T14:16:37.848Z,0.50
2023-05-17T14:19:41.173Z,0.80
2023-05-17T14:22:44.280Z,0.70
2023-05-17T14:25:50.260Z,0.43
2023-05-17T14:28:53.567Z,0.40
2023-05-17T14:31:56.583Z,0.83
2023-05-17T14:34:59.640Z,0.70
2023-05-17T14:38:02.599Z,0.82
2023-05-17T14:41:07.490Z,1.10
2023-05-17T14:44:10.427Z,0.45
2023-05-17T14:47:13.402Z,0.52
2023-05-17T14:50:16.789Z,0.55
2023-05-17T14:53:20.060Z,0.50
2023-05-17T14:56:25.433Z,1.00
2023-05-17T14:59:30.458Z,0.82
2023-05-17T15:02:33.948Z,1.02
2023-05-17T15:05:38.747Z,0.50
2023-05-17T15:08:46.330Z,0.70
2023-05-17T15:11:51.163Z,0.70
2023-05-17T15:14:54.874Z,0.40
2023-05-17T15:17:58.140Z,0.57
2023-05-17T15:21:02.646Z,0.70
2023-05-17T15:24:07.041Z,0.50
2023-05-17T15:27:16.249Z,0.47
2023-05-17T15:30:20.490Z,0.40
2023-05-17T15:33:24.117Z,0.55
2023-05-17T15:36:27.494Z,0.50
2023-05-17T15:39:31.481Z,0.83
2023-05-17T15:42:36.250Z,0.60
2023-05-17T15:45:39.893Z,0.25
2023-05-17T15:48:43.990Z,0.60
2023-05-17T15:51:47.616Z,0.80
2023-05-17T15:54:51.193Z,1.10
2023-05-17T15:57:55.536Z,0.40
2023-05-17T16:00:58.483Z,0.38
2023-05-17T16:05:44.448Z,0.63
2023-05-17T16:08:48.422Z,0.40
2023-05-17T16:11:51.572Z,0.55
2023-05-17T16:14:54.718Z,0.57
2023-05-17T16:17:58.172Z,0.57
2023-05-17T16:21:04.905Z,0.65
2023-05-17T16:24:08.428Z,0.90
2023-05-17T16:27:11.638Z,0.70
2023-05-17T16:30:15.396Z,0.50
2023-05-17T16:33:20.172Z,0.52
2023-05-17T16:36:25.161Z,0.70
2023-05-17T16:39:28.713Z,0.50
2023-05-17T16:42:31.968Z,0.95
2023-05-17T16:45:35.054Z,0.60
2023-05-17T16:48:38.474Z,0.50
2023-05-17T16:51:42.897Z,0.77
2023-05-17T16:54:46.400Z,0.40
2023-05-17T16:57:49.440Z,0.67
2023-05-17T17:00:53.727Z,0.60
2023-05-17T17:03:57.104Z,0.50
2023-05-17T17:07:01.938Z,0.90
2023-05-17T17:10:05.694Z,0.63
2023-05-17T17:13:09.719Z,0.93
2023-05-17T17:16:12.957Z,0.50
2023-05-17T17:19:16.824Z,0.57
2023-05-17T17:22:21.798Z,0.60
2023-05-17T17:25:46.456Z,0.68
2023-05-17T17:28:49.707Z,0.57
2023-05-17T17:31:53.127Z,0.50
2023-05-17T17:34:56.418Z,0.63
2023-05-17T17:37:59.485Z,0.60
2023-05-17T17:44:07.134Z,0.50
2023-05-17T17:47:10.542Z,0.80
2023-05-17T17:50:13.924Z,0.43
2023-05-17T17:53:17.454Z,0.60
2023-05-17T17:56:21.118Z,0.60
2023-05-17T17:59:26.466Z,1.05
2023-05-17T18:02:30.949Z,0.65
2023-05-17T18:05:34.784Z,0.80
2023-05-17T18:08:38.083Z,0.40
2023-05-17T18:11:41.445Z,0.50
2023-05-17T18:14:45.884Z,0.60
2023-05-17T18:17:51.814Z,0.60
2023-05-17T18:20:55.213Z,0.40
2023-05-17T18:23:59.635Z,0.32
2023-05-17T18:27:02.961Z,0.77
2023-05-17T18:30:09.271Z,0.53
2023-05-17T18:33:12.536Z,0.45
2023-05-17T18:36:15.814Z,0.35
2023-05-17T18:39:19.204Z,1.10
2023-05-17T18:42:25.460Z,1.27
2023-05-17T18:45:36.440Z,1.17
2023-05-17T18:49:01.215Z,1.58
2023-05-17T18:55:07.706Z,0.80
2023-05-17T18:58:11.170Z,1.27
2023-05-17T19:01:14.218Z,1.17
2023-05-17T19:04:19.121Z,1.00
2023-05-17T19:07:25.088Z,1.33
2023-05-17T19:10:30.480Z,1.00
2023-05-17T19:13:34.375Z,0.90
2023-05-17T19:16:37.428Z,0.70
2023-05-17T19:19:40.538Z,0.80
2023-05-17T19:22:43.680Z,0.90
2023-05-17T19:25:48.154Z,1.25
2023-05-17T19:28:51.370Z,1.65
2023-05-17T19:31:54.843Z,1.13
2023-05-17T19:34:58.078Z,2.37
2023-05-17T19:38:01.194Z,1.52
2023-05-17T19:41:07.441Z,0.88
2023-05-17T19:44:11.785Z,1.63
2023-05-17T19:50:17.787Z,0.77
2023-05-17T19:53:22.082Z,1.00
2023-05-17T19:59:30.418Z,1.00
2023-05-17T20:02:34.412Z,1.10
2023-05-17T20:05:58.466Z,1.02
2023-05-17T20:09:01.796Z,0.85
2023-05-17T20:12:05.385Z,1.25
2023-05-17T20:15:10.161Z,0.98
2023-05-17T20:18:13.263Z,0.80
2023-05-17T20:21:19.763Z,0.90
2023-05-17T20:24:25.415Z,1.17
2023-05-17T20:27:28.565Z,1.08
2023-05-17T20:30:32.060Z,1.60
2023-05-17T20:33:35.393Z,1.35
2023-05-17T20:36:40.143Z,1.20
2023-05-17T20:39:43.393Z,1.10
2023-05-17T20:42:47.281Z,0.88
2023-05-17T20:45:53.739Z,0.85
2023-05-17T20:48:58.058Z,0.93
2023-05-17T20:55:07.461Z,1.60
2023-05-17T20:58:10.713Z,1.38
2023-05-17T21:01:14.984Z,1.10
2023-05-17T21:04:18.203Z,1.40
2023-05-17T21:07:26.513Z,1.15
2023-05-17T21:10:30.351Z,0.95
2023-05-17T21:13:33.573Z,1.50
2023-05-17T21:16:36.937Z,1.75
2023-05-17T21:19:40.490Z,1.73
2023-05-17T21:22:46.187Z,1.30
2023-05-17T21:25:50.777Z,1.70
2023-05-17T21:28:53.811Z,2.22
2023-05-17T21:31:57.000Z,2.55
2023-05-17T21:37:36.988Z,2.53
2023-05-17T21:40:40.558Z,2.20
2023-05-17T21:43:43.921Z,2.25
2023-05-17T21:46:47.053Z,1.93
2023-05-17T21:49:50.382Z,2.03
2023-05-17T21:52:54.785Z,1.83
2023-05-17T21:56:02.706Z,2.13
2023-05-17T21:59:06.384Z,1.80
2023-05-17T22:02:09.670Z,1.45
2023-05-17T22:05:13.525Z,1.43
2023-05-17T22:08:18.156Z,1.33
2023-05-17T22:11:22.900Z,1.02
2023-05-17T22:14:26.649Z,1.23
2023-05-17T22:17:39.187Z,0.90
2023-05-17T22:20:53.243Z,1.30
2023-05-17T22:23:58.172Z,1.13
2023-05-17T22:27:01.205Z,1.95
2023-05-17T22:30:04.541Z,1.13
2023-05-17T22:33:07.655Z,0.95
2023-05-17T22:36:13.961Z,1.33
2023-05-17T22:39:19.256Z,0.80
2023-05-17T22:42:24.205Z,1.30
2023-05-17T22:45:34.715Z,1.40
2023-05-17T22:48:38.695Z,1.58
2023-05-17T22:51:42.713Z,1.20
2023-05-17T22:54:47.614Z,1.33
2023-05-17T22:57:50.798Z,1.45
2023-05-17T23:00:54.296Z,1.30
2023-05-17T23:03:57.653Z,1.38
2023-05-17T23:07:02.074Z,1.10
2023-05-17T23:10:08.430Z,1.02
2023-05-17T23:13:11.964Z,1.33
2023-05-17T23:16:16.667Z,1.30
2023-05-17T23:19:20.803Z,1.48
2023-05-17T23:25:29.596Z,1.00
2023-05-17T23:28:32.892Z,1.33
2023-05-17T23:31:36.270Z,1.20
2023-05-17T23:34:39.328Z,1.20
2023-05-17T23:37:42.439Z,1.80
2023-05-17T23:40:46.981Z,1.80
2023-05-17T23:43:50.072Z,1.42
2023-05-17T23:46:54.872Z,1.25
2023-05-17T23:49:58.197Z,1.50
2023-05-17T23:53:03.517Z,1.30
2023-05-17T23:56:08.720Z,1.15
2023-05-17T23:59:12.162Z,0.98
